Time;durP1;ratioP1;P1;durP2;ratioP2;P2;SDS_P1;SDS_P2;PMS_P1;PMS_P2;Temp;Humidity;BMP_temperature;BMP_pressure;BME280_temperature;BME280_humidity;BME280_pressure;Samples;Min_cycle;Max_cycle;Signal;HPM_P1;HPM_P2
2022/07/02 00:00:15;;;;;;;6.53;4.37;;;;;;;13.28;100.00;101674.69;5029542;28;20267;-74
2022/07/02 00:02:42;;;;;;;8.00;5.18;;;;;;;13.22;100.00;101667.22;5027706;28;20029;-74
2022/07/02 00:05:08;;;;;;;11.18;5.22;;;;;;;13.11;100.00;101660.31;5033969;28;20107;-73
2022/07/02 00:07:34;;;;;;;7.72;4.80;;;;;;;13.07;100.00;101656.25;5032938;28;20036;-73
2022/07/02 00:09:59;;;;;;;10.97;4.90;;;;;;;12.98;100.00;101662.53;5034127;28;20021;-73
2022/07/02 00:12:27;;;;;;;10.35;4.75;;;;;;;13.01;100.00;101663.06;5031842;28;20404;-74
2022/07/02 00:14:58;;;;;;;11.63;5.45;;;;;;;13.09;100.00;101667.66;5032072;28;20022;-73
2022/07/02 00:17:24;;;;;;;11.90;4.80;;;;;;;13.06;100.00;101663.44;5033414;28;20051;-73
2022/07/02 00:19:51;;;;;;;15.32;4.40;;;;;;;13.00;100.00;101656.03;5031234;28;20021;-73
2022/07/02 00:22:17;;;;;;;11.15;4.78;;;;;;;12.99;100.00;101651.63;5033983;28;20107;-73
2022/07/02 00:24:44;;;;;;;11.73;4.13;;;;;;;12.94;100.00;101661.16;5030352;28;20483;-74
2022/07/02 00:27:11;;;;;;;13.82;4.78;;;;;;;12.86;100.00;101644.03;5034431;28;20029;-75
2022/07/02 00:29:48;;;;;;;8.27;4.25;;;;;;;12.79;100.00;101655.53;5032390;28;20497;-73
2022/07/02 00:32:14;;;;;;;10.18;4.85;;;;;;;12.72;100.00;101651.78;5024424;28;20033;-74
2022/07/02 00:34:41;;;;;;;8.20;4.87;;;;;;;12.65;100.00;101649.69;5031168;28;20066;-76
2022/07/02 00:37:08;;;;;;;8.20;5.60;;;;;;;12.60;100.00;101649.34;5034961;28;20041;-74
2022/07/02 00:39:34;;;;;;;13.23;6.47;;;;;;;12.61;100.00;101644.81;5033873;28;20029;-73
2022/07/02 00:42:03;;;;;;;13.88;7.85;;;;;;;12.63;100.00;101649.00;5032532;28;20034;-73
2022/07/02 00:44:29;;;;;;;15.13;8.50;;;;;;;12.62;100.00;101663.41;5032469;28;20426;-73
2022/07/02 00:46:57;;;;;;;14.48;8.05;;;;;;;12.57;100.00;101655.00;5033515;28;20071;-72
2022/07/02 00:49:23;;;;;;;13.48;7.70;;;;;;;12.51;100.00;101660.97;5032804;28;20033;-73
2022/07/02 00:51:48;;;;;;;11.10;6.90;;;;;;;12.42;100.00;101657.34;5031779;28;20402;-73
2022/07/02 00:54:14;;;;;;;12.33;7.17;;;;;;;12.36;100.00;101659.78;5032675;28;20052;-73
2022/07/02 00:56:39;;;;;;;10.53;6.47;;;;;;;12.30;100.00;101663.09;5032082;28;20740;-74
2022/07/02 00:59:04;;;;;;;11.37;5.93;;;;;;;12.22;100.00;101650.44;5032746;28;20363;-73
2022/07/02 01:01:30;;;;;;;11.80;6.20;;;;;;;12.20;100.00;101652.47;5031502;28;20544;-74
2022/07/02 01:03:59;;;;;;;14.25;7.20;;;;;;;12.12;100.00;101657.72;5033035;28;20513;-74
2022/07/02 01:06:26;;;;;;;10.48;5.97;;;;;;;12.08;100.00;101654.50;5032187;28;20044;-74
2022/07/02 01:11:37;;;;;;;;;;;;;;;12.00;100.00;101657.91;5037665;28;20034;-74
2022/07/02 01:14:02;;;;;;;;;;;;;;;11.97;100.00;101652.03;5039800;28;20380;-74
2022/07/02 01:16:27;;;;;;;12.03;6.40;;;;;;;11.91;100.00;101661.47;5044527;28;19917;-75
2022/07/02 01:18:53;;;;;;;14.57;7.13;;;;;;;11.87;100.00;101660.13;5035065;28;20109;-75
2022/07/02 01:21:18;;;;;;;12.13;6.40;;;;;;;11.84;100.00;101652.34;5032407;28;20094;-74
2022/07/02 01:23:44;;;;;;;12.03;7.13;;;;;;;11.80;100.00;101662.50;5031289;28;20275;-74
2022/07/02 01:26:09;;;;;;;12.63;7.03;;;;;;;11.79;100.00;101660.81;5032116;28;20052;-74
2022/07/02 01:28:34;;;;;;;13.93;7.20;;;;;;;11.78;100.00;101663.66;5029634;28;20021;-75
2022/07/02 01:31:00;;;;;;;11.60;6.70;;;;;;;11.75;100.00;101658.56;5031131;28;20036;-73
2022/07/02 01:33:25;;;;;;;13.17;8.13;;;;;;;11.73;100.00;101656.06;5030273;28;20140;-74
2022/07/02 01:35:51;;;;;;;14.90;7.87;;;;;;;11.69;100.00;101649.31;5029426;28;20041;-74
2022/07/02 01:38:16;;;;;;;20.17;9.10;;;;;;;11.80;100.00;101657.16;5032695;28;20650;-76
2022/07/02 01:40:41;;;;;;;21.63;10.67;;;;;;;11.87;100.00;101662.78;5031293;28;20068;-74
2022/07/02 01:43:07;;;;;;;17.10;9.13;;;;;;;11.88;100.00;101668.97;5031476;28;20133;-75
2022/07/02 01:45:32;;;;;;;16.80;9.97;;;;;;;11.89;100.00;101674.16;5031257;28;20502;-74
2022/07/02 01:47:58;;;;;;;19.13;10.10;;;;;;;11.93;100.00;101680.06;5032611;28;20041;-74
2022/07/02 01:50:23;;;;;;;12.53;8.27;;;;;;;11.81;100.00;101682.91;5033861;28;20039;-74
2022/07/02 01:52:50;;;;;;;10.10;7.30;;;;;;;11.62;100.00;101678.47;5031884;28;20056;-74
2022/07/02 01:55:16;;;;;;;16.23;7.30;;;;;;;11.55;100.00;101672.03;5031129;28;20120;-73
2022/07/02 01:57:42;;;;;;;11.57;7.75;;;;;;;11.56;100.00;101670.19;5030580;28;20524;-74
2022/07/02 02:00:10;;;;;;;13.20;7.77;;;;;;;11.52;100.00;101674.16;5032938;28;20032;-75
2022/07/02 02:02:36;;;;;;;17.35;8.38;;;;;;;11.52;100.00;101679.50;5029138;28;20033;-75
2022/07/02 02:05:02;;;;;;;11.63;7.40;;;;;;;11.47;100.00;101684.44;5031140;28;20505;-74
2022/07/02 02:07:28;;;;;;;11.25;7.53;;;;;;;11.44;100.00;101682.06;5029307;28;20022;-74
2022/07/02 02:09:53;;;;;;;17.00;8.73;;;;;;;11.41;100.00;101684.03;5029652;28;20113;-74
2022/07/02 02:12:20;;;;;;;8.93;7.03;;;;;;;11.35;100.00;101681.09;5031239;28;20530;-74
2022/07/02 02:14:45;;;;;;;15.50;8.70;;;;;;;11.30;100.00;101680.69;5030435;28;20638;-75
2022/07/02 02:17:11;;;;;;;12.07;8.10;;;;;;;11.30;100.00;101686.03;5032368;28;20055;-74
2022/07/02 02:19:36;;;;;;;13.80;8.23;;;;;;;11.29;100.00;101687.03;5028591;28;20056;-74
2022/07/02 02:22:02;;;;;;;12.13;7.93;;;;;;;11.25;100.00;101685.63;5030644;28;20041;-74
2022/07/02 02:24:27;;;;;;;13.33;8.70;;;;;;;11.23;100.00;101683.09;5029036;28;20487;-74
2022/07/02 02:26:52;;;;;;;13.43;8.20;;;;;;;11.19;100.00;101693.25;5029067;28;20280;-74
2022/07/02 02:29:18;;;;;;;12.93;8.60;;;;;;;11.17;100.00;101691.69;5030063;28;20140;-74
2022/07/02 02:31:43;;;;;;;15.87;8.00;;;;;;;11.14;100.00;101694.66;5028351;28;20036;-74
2022/07/02 02:34:08;;;;;;;10.47;7.63;;;;;;;11.13;100.00;101701.00;5032085;28;20033;-74
2022/07/02 02:36:34;;;;;;;13.20;8.00;;;;;;;11.07;100.00;101706.88;5029952;28;20448;-74
2022/07/02 02:38:59;;;;;;;11.65;6.90;;;;;;;11.06;100.00;101697.19;5030187;28;20048;-75
2022/07/02 02:41:25;;;;;;;9.43;6.97;;;;;;;11.02;100.00;101696.63;5026322;28;20051;-75
2022/07/02 02:43:50;;;;;;;14.97;7.40;;;;;;;11.01;100.00;101697.63;5028990;28;20029;-75
2022/07/02 02:46:16;;;;;;;22.57;8.67;;;;;;;11.01;100.00;101694.94;5030325;28;20363;-75
2022/07/02 02:48:42;;;;;;;12.57;7.68;;;;;;;10.95;100.00;101688.34;5028341;28;20451;-75
2022/07/02 02:51:08;;;;;;;16.37;9.97;;;;;;;11.00;100.00;101701.25;5030203;28;20127;-74
2022/07/02 02:53:34;;;;;;;22.90;11.75;;;;;;;10.98;100.00;101708.59;5028502;28;20436;-76
2022/07/02 02:56:01;;;;;;;15.02;8.32;;;;;;;10.93;100.00;101706.34;5031171;28;20025;-75
2022/07/02 02:58:26;;;;;;;;;;;;;;;10.90;100.00;101714.63;5029180;28;20501;-75
2022/07/02 03:00:52;;;;;;;;;;;;;;;10.92;100.00;101715.34;5030514;28;19917;-75
2022/07/02 03:03:18;;;;;;;14.95;8.93;;;;;;;10.96;100.00;101716.75;5027566;28;19917;-74
2022/07/02 03:05:43;;;;;;;17.77;9.32;;;;;;;10.95;100.00;101724.91;5028397;28;20029;-75
2022/07/02 03:08:09;;;;;;;25.90;11.20;;;;;;;10.90;100.00;101722.66;5031709;28;20044;-73
2022/07/02 03:10:34;;;;;;;14.63;9.73;;;;;;;10.87;100.00;101725.63;5029577;28;20025;-73
2022/07/02 03:12:59;;;;;;;17.80;10.30;;;;;;;10.86;100.00;101726.59;5029568;28;20057;-73
2022/07/02 03:15:25;;;;;;;16.97;10.80;;;;;;;10.91;100.00;101731.50;5028688;28;20466;-74
2022/07/02 03:17:50;;;;;;;23.60;13.52;;;;;;;10.90;100.00;101733.34;5029802;28;20030;-73
2022/07/02 03:20:16;;;;;;;23.77;13.40;;;;;;;10.85;100.00;101737.44;5030723;28;20077;-73
2022/07/02 03:22:41;;;;;;;20.53;12.00;;;;;;;10.95;100.00;101731.09;5027729;28;20580;-74
2022/07/02 03:25:07;;;;;;;20.27;11.37;;;;;;;10.90;100.00;101744.03;5025657;28;20488;-73
2022/07/02 03:27:33;;;;;;;17.85;11.63;;;;;;;10.95;100.00;101747.13;5029174;28;20038;-74
2022/07/02 03:29:59;;;;;;;23.23;13.80;;;;;;;11.02;100.00;101751.91;5029313;28;20120;-73
2022/07/02 03:32:25;;;;;;;25.40;13.03;;;;;;;11.09;100.00;101758.38;5033404;28;20117;-74
2022/07/02 03:34:53;;;;;;;27.33;14.27;;;;;;;11.18;100.00;101762.88;5029089;28;20079;-74
2022/07/02 03:37:21;;;;;;;30.08;18.20;;;;;;;11.29;100.00;101768.06;5027688;28;20037;-74
2022/07/02 03:39:47;;;;;;;25.40;16.52;;;;;;;11.36;100.00;101771.03;5031370;28;20553;-74
2022/07/02 03:42:12;;;;;;;26.87;17.23;;;;;;;11.50;100.00;101781.28;5031623;28;20029;-74
2022/07/02 03:44:37;;;;;;;30.40;17.57;;;;;;;11.62;100.00;101779.28;5033035;28;20363;-74
2022/07/02 03:47:03;;;;;;;32.20;19.50;;;;;;;11.67;100.00;101781.53;5035388;28;20033;-73
2022/07/02 03:49:28;;;;;;;27.10;16.83;;;;;;;11.70;100.00;101791.94;5058681;22;20041;-87
2022/07/02 03:51:54;;;;;;;34.33;18.03;;;;;;;11.80;100.00;101790.94;5051855;28;20124;-87
2022/07/02 03:54:19;;;;;;;36.33;18.23;;;;;;;11.92;100.00;101790.78;5025494;28;20179;-86
2022/07/02 03:56:44;;;;;;;30.23;17.10;;;;;;;11.98;100.00;101792.88;5050767;22;20061;-72
2022/07/02 03:59:10;;;;;;;32.57;18.87;;;;;;;12.10;100.00;101801.56;5032899;28;20437;-73
2022/07/02 04:01:35;;;;;;;30.50;18.20;;;;;;;12.16;100.00;101793.78;5026769;28;20049;-73
2022/07/02 04:04:00;;;;;;;33.43;16.37;;;;;;;12.23;100.00;101792.19;5027243;28;20075;-72
2022/07/02 04:06:26;;;;;;;37.20;19.83;;;;;;;12.27;100.00;101782.06;5043417;28;20481;-73
2022/07/02 04:08:51;;;;;;;29.40;17.57;;;;;;;12.37;100.00;101784.69;5028258;28;20092;-73
2022/07/02 04:11:17;;;;;;;35.10;18.33;;;;;;;12.47;100.00;101785.47;5028167;28;20178;-75
2022/07/02 04:13:42;;;;;;;31.67;18.02;;;;;;;12.52;100.00;101782.34;5024941;28;20029;-73
2022/07/02 04:16:08;;;;;;;30.67;17.20;;;;;;;12.52;100.00;101777.81;5028187;28;20049;-74
2022/07/02 04:18:33;;;;;;;31.40;17.50;;;;;;;12.64;100.00;101773.09;5026910;28;20025;-73
2022/07/02 04:20:58;;;;;;;31.20;15.90;;;;;;;12.62;100.00;101775.94;5018188;28;20034;-73
2022/07/02 04:23:24;;;;;;;29.97;18.43;;;;;;;12.66;100.00;101766.56;5043250;28;20021;-73
2022/07/02 04:25:49;;;;;;;26.27;15.90;;;;;;;12.79;100.00;101765.38;5026667;28;20033;-73
2022/07/02 04:28:15;;;;;;;30.97;16.27;;;;;;;12.91;100.00;101758.81;5026782;28;20029;-73
2022/07/02 04:30:40;;;;;;;27.37;15.23;;;;;;;13.04;100.00;101753.91;5028053;28;20104;-72
2022/07/02 04:33:05;;;;;;;36.37;15.47;;;;;;;13.08;100.00;101751.75;5027656;28;20502;-72
2022/07/02 04:35:31;;;;;;;20.50;13.93;;;;;;;13.19;100.00;101748.81;5026327;28;20034;-74
2022/07/02 04:37:57;;;;;;;23.38;15.07;;;;;;;13.26;100.00;101751.72;5026461;28;20071;-73
2022/07/02 04:40:22;;;;;;;26.00;15.65;;;;;;;13.37;100.00;101754.19;5027547;28;20044;-74
2022/07/02 04:42:47;;;;;;;22.10;13.37;;;;;;;13.47;100.00;101752.25;5026627;28;20160;-72
2022/07/02 04:45:13;;;;;;;21.27;13.30;;;;;;;13.58;100.00;101736.88;5026543;28;20038;-73
2022/07/02 04:47:38;;;;;;;23.40;13.70;;;;;;;13.73;100.00;101738.00;5027706;28;20115;-72
2022/07/02 04:50:04;;;;;;;21.30;11.80;;;;;;;13.89;100.00;101732.72;5025402;28;20046;-73
2022/07/02 04:52:29;;;;;;;23.77;11.70;;;;;;;14.08;100.00;101725.41;5032191;28;20025;-73
2022/07/02 04:54:55;;;;;;;15.57;10.23;;;;;;;14.21;100.00;101727.63;5027279;28;20034;-73
2022/07/02 04:57:20;;;;;;;19.37;9.90;;;;;;;14.31;100.00;101725.69;5027853;28;20083;-72
2022/07/02 04:59:45;;;;;;;14.73;10.10;;;;;;;14.43;100.00;101716.28;5017633;28;20121;-73
2022/07/02 05:02:12;;;;;;;15.77;8.43;;;;;;;14.57;100.00;101717.53;5026545;28;20087;-73
2022/07/02 05:04:38;;;;;;;;;;;;;;;14.61;100.00;101710.84;5025975;28;20482;-74
2022/07/02 05:07:03;;;;;;;18.60;8.02;;;;;;;14.76;100.00;101702.94;5026184;28;19915;-72
2022/07/02 05:09:29;;;;;;;13.98;8.15;;;;;;;14.70;100.00;101709.84;5018174;28;20041;-73
2022/07/02 05:11:54;;;;;;;14.90;7.70;;;;;;;14.97;100.00;101710.53;5025455;28;20108;-73
2022/07/02 05:14:20;;;;;;;16.52;7.85;;;;;;;15.16;100.00;101710.16;5023543;28;20034;-73
2022/07/02 05:16:45;;;;;;;14.07;6.93;;;;;;;15.17;100.00;101711.00;5027082;28;20576;-72
2022/07/02 05:19:11;;;;;;;13.50;6.77;;;;;;;15.34;100.00;101698.41;5025685;28;20033;-73
2022/07/02 05:21:37;;;;;;;7.63;6.20;;;;;;;15.48;100.00;101711.16;5025344;28;20099;-72
2022/07/02 05:24:03;;;;;;;11.52;6.68;;;;;;;15.65;100.00;101711.13;5027289;28;20116;-73
2022/07/02 05:26:29;;;;;;;13.35;6.13;;;;;;;15.78;100.00;101706.03;5019825;28;20021;-73
2022/07/02 05:28:54;;;;;;;12.50;5.50;;;;;;;15.74;100.00;101693.97;5026143;28;20099;-72
2022/07/02 05:31:20;;;;;;;13.90;6.27;;;;;;;15.45;100.00;101681.88;5027276;28;20386;-72
2022/07/02 05:33:45;;;;;;;10.77;5.70;;;;;;;15.93;100.00;101709.69;5027875;28;20025;-73
2022/07/02 05:36:10;;;;;;;8.23;5.37;;;;;;;16.33;100.00;101690.81;5027701;28;20029;-73
2022/07/02 05:38:36;;;;;;;10.93;4.93;;;;;;;16.85;100.00;101676.66;5027745;28;20112;-73
2022/07/02 05:41:01;;;;;;;12.70;4.63;;;;;;;17.61;100.00;101639.63;5024688;28;20063;-72
2022/07/02 05:43:27;;;;;;;13.27;5.00;;;;;;;18.26;100.00;101573.09;5027163;28;20059;-74
2022/07/02 05:45:52;;;;;;;9.63;4.78;;;;;;;18.63;100.00;101499.97;5026314;28;20041;-74
2022/07/02 05:48:18;;;;;;;8.97;3.70;;;;;;;19.48;100.00;101487.09;5026291;28;20030;-73
2022/07/02 05:50:43;;;;;;;8.87;4.50;;;;;;;19.45;100.00;101396.28;5025468;28;20021;-73
2022/07/02 05:53:09;;;;;;;10.30;5.20;;;;;;;19.37;100.00;101345.88;5025606;28;20529;-72
2022/07/02 05:55:34;;;;;;;4.80;3.60;;;;;;;20.27;100.00;101382.56;5025846;28;20115;-72
2022/07/02 05:57:59;;;;;;;7.97;3.80;;;;;;;19.73;100.00;101295.91;5025449;28;20087;-73
2022/07/02 06:00:25;;;;;;;7.57;3.40;;;;;;;19.87;100.00;101249.84;5024847;28;20049;-72
2022/07/02 06:02:50;;;;;;;7.57;3.70;;;;;;;19.36;100.00;101262.13;5024999;28;20280;-72
2022/07/02 06:08:00;;;;;;;12.68;4.45;;;;;;;19.67;100.00;101340.06;5024414;28;20041;-73
2022/07/02 06:10:25;;;;;;;16.67;3.83;;;;;;;20.62;100.00;101419.22;5026336;28;20022;-73
2022/07/02 06:12:53;;;;;;;4.80;2.40;;;;;;;21.53;100.00;101283.47;5026297;28;20038;-72
2022/07/02 06:15:20;;;;;;;6.60;3.05;;;;;;;21.50;100.00;101144.31;5025144;28;20025;-73
2022/07/02 06:17:46;;;;;;;7.35;3.70;;;;;;;20.41;100.00;101192.50;5026377;28;20033;-72
2022/07/02 06:20:13;;;;;;;6.78;2.85;;;;;;;20.21;100.00;101241.41;5024932;28;20701;-72
2022/07/02 06:22:38;;;;;;;5.85;2.92;;;;;;;20.73;100.00;101340.97;5025003;28;20048;-73
2022/07/02 06:25:05;;;;;;;6.97;2.63;;;;;;;21.40;100.00;101202.91;5025149;28;20029;-74
2022/07/02 06:27:33;;;;;;;4.45;2.50;;;;;;;21.09;100.00;101142.16;5026355;28;20061;-72
2022/07/02 06:29:59;;;;;;;6.57;2.80;;;;;;;20.63;100.00;101233.72;5024730;28;20079;-73
2022/07/02 06:32:25;;;;;;;11.02;3.80;;;;;;;20.76;100.00;101172.28;5024648;28;20402;-74
2022/07/02 06:34:50;;;;;;;6.22;3.13;;;;;;;20.28;100.00;101162.75;5024992;28;20025;-73
2022/07/02 06:37:15;;;;;;;4.67;2.30;;;;;;;20.31;100.00;101297.06;5026079;28;20048;-72
2022/07/02 06:39:41;;;;;;;9.13;2.80;;;;;;;20.75;100.00;101144.34;5025906;28;20083;-73
2022/07/02 06:42:28;;;;;;;4.83;1.90;;;;;;;20.39;100.00;101239.84;5025824;28;20029;-73
2022/07/02 06:44:57;;;;;;;2.67;2.17;;;;;;;20.58;100.00;101216.44;5024895;28;20025;-73
2022/07/02 06:47:23;;;;;;;3.58;2.40;;;;;;;19.62;100.00;101223.41;5025932;28;20686;-73
2022/07/02 06:49:49;;;;;;;;;;;;;;;19.37;100.00;101240.28;5026079;28;20040;-73
2022/07/02 06:52:16;;;;;;;6.55;2.50;;;;;;;20.06;100.00;101435.97;5024514;28;19913;-73
2022/07/02 06:54:42;;;;;;;4.88;2.05;;;;;;;20.99;100.00;101414.09;5024596;28;20138;-73
2022/07/02 06:57:09;;;;;;;7.28;2.45;;;;;;;21.08;100.00;101346.81;5025744;28;20413;-72
2022/07/02 06:59:34;;;;;;;5.55;2.08;;;;;;;20.45;100.00;101209.19;5007891;28;20108;-72
2022/07/02 07:02:00;;;;;;;4.63;1.65;;;;;;;20.24;100.00;101184.03;5025331;28;20025;-72
2022/07/02 07:04:28;;;;;;;2.58;2.30;;;;;;;20.29;100.00;101009.88;5025703;28;20031;-72
2022/07/02 07:06:55;;;;;;;7.70;1.98;;;;;;;21.07;100.00;101280.84;5025890;28;20025;-73
2022/07/02 07:09:24;;;;;;;4.95;1.30;;;;;;;20.60;100.00;101147.38;5025336;28;20044;-72
2022/07/02 07:11:50;;;;;;;4.32;1.35;;;;;;;20.87;100.00;101084.75;5025260;28;20024;-73
2022/07/02 07:14:17;;;;;;;1.38;1.23;;;;;;;20.44;100.00;100983.28;5024332;28;20441;-73
2022/07/02 07:16:42;;;;;;;4.72;1.33;;;;;;;20.54;100.00;101015.31;5025336;28;20112;-74
2022/07/02 07:19:08;;;;;;;5.07;1.23;;;;;;;20.42;99.95;100955.53;5025469;28;20476;-73
2022/07/02 07:21:35;;;;;;;5.13;1.33;;;;;;;20.42;93.71;100873.38;5025058;28;20028;-73
2022/07/02 07:24:00;;;;;;;2.28;1.10;;;;;;;21.34;96.08;101093.25;5025677;28;20037;-74
2022/07/02 07:26:26;;;;;;;2.42;0.95;;;;;;;21.61;87.40;100977.03;5007883;28;20386;-73
2022/07/02 07:28:52;;;;;;;4.80;1.50;;;;;;;21.48;84.30;100917.44;5025506;28;20071;-72
2022/07/02 07:31:20;;;;;;;4.40;1.10;;;;;;;20.06;87.48;100776.56;5007247;28;20316;-73
2022/07/02 07:33:53;;;;;;;3.88;1.08;;;;;;;20.39;92.28;100985.81;5025423;28;20505;-71
2022/07/02 07:36:20;;;;;;;4.47;1.02;;;;;;;21.01;99.15;101215.75;5024237;28;20072;-72
2022/07/02 07:38:47;;;;;;;8.23;1.13;;;;;;;21.79;87.94;101128.31;5025425;28;20021;-72
2022/07/02 07:41:13;;;;;;;2.58;1.10;;;;;;;21.52;81.09;100944.94;5023949;28;20037;-72
2022/07/02 07:43:38;;;;;;;2.83;1.47;;;;;;;20.56;92.00;101034.94;5025270;28;20408;-73
2022/07/02 07:46:04;;;;;;;5.17;1.23;;;;;;;20.70;87.81;101027.50;5025232;28;20373;-72
2022/07/02 07:48:29;;;;;;;3.60;0.82;;;;;;;20.74;85.49;101011.59;5024381;28;20021;-72
2022/07/02 07:50:55;;;;;;;5.28;0.98;;;;;;;20.32;90.70;101039.28;5025053;28;20125;-72
2022/07/02 07:53:20;;;;;;;3.22;1.08;;;;;;;20.27;91.14;101046.38;5023805;28;20025;-72
2022/07/02 07:55:48;;;;;;;6.33;2.87;;;;;;;20.93;90.48;101159.88;5025488;28;20033;-72
2022/07/02 07:58:13;;;;;;;3.97;1.70;;;;;;;21.52;87.41;101189.41;5022987;28;20037;-71
2022/07/02 08:00:40;;;;;;;2.25;0.98;;;;;;;21.75;83.73;101135.28;5024361;28;20056;-72
2022/07/02 08:03:05;;;;;;;4.60;1.30;;;;;;;21.52;77.54;100974.81;5023468;28;20501;-72
2022/07/02 08:05:30;;;;;;;4.97;1.63;;;;;;;22.33;83.87;101259.84;5025041;28;20044;-72
2022/07/02 08:07:56;;;;;;;3.77;1.00;;;;;;;22.80;72.79;101086.91;5023788;28;20036;-72
2022/07/02 08:10:21;;;;;;;5.67;1.50;;;;;;;22.32;67.06;100831.19;5024788;28;20168;-72
2022/07/02 08:12:48;;;;;;;5.50;1.10;;;;;;;22.04;72.33;100983.28;5024560;28;20322;-72
2022/07/02 08:15:14;;;;;;;5.07;1.35;;;;;;;21.58;75.25;100982.88;5021739;28;20136;-73
2022/07/02 08:17:39;;;;;;;4.70;1.00;;;;;;;21.50;75.25;100992.19;5025157;28;20104;-72
2022/07/02 08:20:07;;;;;;;4.70;0.85;;;;;;;21.88;70.10;100953.00;5024649;28;20060;-72
2022/07/02 08:22:33;;;;;;;2.92;0.90;;;;;;;22.48;72.29;101111.72;5023536;28;20018;-72
2022/07/02 08:24:58;;;;;;;5.78;1.10;;;;;;;23.00;68.26;101095.59;5027054;28;20094;-72
2022/07/02 08:27:24;;;;;;;4.53;1.27;;;;;;;23.29;66.86;101093.81;5027103;28;20057;-72
2022/07/02 08:29:49;;;;;;;4.07;1.03;;;;;;;23.90;62.14;101074.38;5028213;28;20521;-72
2022/07/02 08:32:15;;;;;;;2.97;1.00;;;;;;;22.47;61.43;100800.75;5025943;28;20291;-72
2022/07/02 08:34:40;;;;;;;3.35;1.20;;;;;;;23.34;66.08;101104.00;5028068;28;20033;-72
2022/07/02 08:37:06;;;;;;;3.93;1.40;;;;;;;23.45;65.94;101132.28;5028347;28;20030;-72
2022/07/02 08:39:31;;;;;;;13.40;1.42;;;;;;;24.02;62.84;101114.19;5028097;28;20033;-72
2022/07/02 08:41:58;;;;;;;5.22;1.77;;;;;;;23.49;59.15;100878.19;5026669;28;20041;-74
2022/07/02 08:44:24;;;;;;;;;;;;;;;23.44;59.43;100901.78;5028606;28;20034;-72
2022/07/02 08:46:50;;;;;;;6.80;1.60;;;;;;;22.96;60.44;100847.47;5028338;28;19972;-72
2022/07/02 08:49:20;;;;;;;;;;;;;;;22.61;59.27;100767.84;5027189;28;20053;-72
2022/07/02 08:52:04;;;;;;;4.95;1.30;;;;;;;22.86;62.05;100930.84;5026611;28;20336;-72
2022/07/02 08:54:31;;;;;;;4.90;1.20;;;;;;;23.01;65.57;101066.47;5027732;28;20033;-72
2022/07/02 08:56:59;;;;;;;4.20;1.00;;;;;;;23.63;60.91;101049.56;5026623;28;20037;-73
2022/07/02 08:59:25;;;;;;;2.28;1.00;;;;;;;22.64;60.14;100817.19;5026350;28;20025;-72
2022/07/02 09:01:52;;;;;;;4.07;1.08;;;;;;;23.25;63.63;101084.47;5026339;28;20017;-72
2022/07/02 09:04:18;;;;;;;;;;;;;;;23.21;62.63;101019.81;5027090;28;20037;-73
2022/07/02 09:06:46;;;;;;;3.05;1.20;;;;;;;22.93;61.03;100915.19;5027876;28;19951;-72
2022/07/02 09:09:12;;;;;;;4.32;1.17;;;;;;;23.15;60.40;100959.78;5027579;28;20892;-73
2022/07/02 09:11:37;;;;;;;7.38;1.77;;;;;;;23.09;59.15;100941.69;5027407;28;20021;-73
2022/07/02 09:14:04;;;;;;;2.47;0.90;;;;;;;23.80;58.06;101053.19;5027661;28;20045;-72
2022/07/02 09:16:31;;;;;;;3.47;1.10;;;;;;;23.46;55.33;100818.75;5018543;28;20032;-72
2022/07/02 09:18:56;;;;;;;2.88;0.80;;;;;;;23.66;57.25;100970.03;5027559;28;20121;-72
2022/07/02 09:21:22;;;;;;;2.70;1.17;;;;;;;23.50;59.04;100996.16;5027381;28;20104;-74
2022/07/02 09:23:48;;;;;;;2.97;1.02;;;;;;;23.00;56.41;100782.50;5025899;28;20414;-72
2022/07/02 09:26:20;;;;;;;;;;;;;;;23.09;59.13;100968.94;5028037;28;20173;-72
2022/07/02 09:29:12;;;;;;;4.50;1.00;;;;;;;22.16;57.80;100695.94;5042473;28;20010;-72
2022/07/02 09:31:48;;;;;;;5.55;1.50;;;;;;;22.88;63.17;101097.47;5019736;28;20113;-73
2022/07/02 09:34:27;;;;;;;3.70;1.20;;;;;;;23.82;59.65;101121.94;5023948;28;20041;-72
2022/07/02 09:36:53;;;;;;;3.10;0.98;;;;;;;23.02;54.37;100723.19;5026132;28;20059;-72
2022/07/02 09:39:30;;;;;;;2.50;1.17;;;;;;;22.88;56.07;100838.88;5009606;28;20482;-72
2022/07/02 09:41:56;;;;;;;3.40;1.10;;;;;;;23.42;56.40;100951.06;5025726;28;20029;-72
2022/07/02 09:44:22;;;;;;;4.68;1.38;;;;;;;23.99;54.62;101023.84;5026933;28;20079;-73
2022/07/02 09:46:47;;;;;;;4.75;1.42;;;;;;;23.63;52.03;100741.63;5025718;28;20033;-72
2022/07/02 09:49:14;;;;;;;1.87;0.60;;;;;;;23.71;50.97;100749.34;5038473;22;20025;-77
2022/07/02 09:51:52;;;;;;;2.38;0.80;;;;;;;23.66;51.74;100763.72;4986859;28;20038;-76
2022/07/02 09:54:19;;;;;;;4.15;1.13;;;;;;;24.25;51.84;100918.72;4974156;28;20034;-78
2022/07/02 09:56:51;;;;;;;3.60;1.10;;;;;;;24.46;53.48;101067.19;4985039;28;20047;-76
2022/07/02 09:59:17;;;;;;;4.63;1.90;;;;;;;25.37;52.72;101118.09;4988090;28;20065;-76
2022/07/02 10:01:44;;;;;;;4.15;1.13;;;;;;;25.08;50.06;100904.31;4981989;28;20085;-77
2022/07/02 10:04:09;;;;;;;2.03;0.90;;;;;;;24.99;48.66;100800.16;4964174;28;20724;-78
2022/07/02 10:06:35;;;;;;;3.78;1.15;;;;;;;23.48;49.02;100535.94;4983724;28;20018;-76
2022/07/02 10:09:01;;;;;;;2.78;1.13;;;;;;;23.39;53.45;100839.88;4980849;28;20043;-76
2022/07/02 10:11:28;;;;;;;2.75;1.20;;;;;;;23.98;51.34;100874.94;4978575;28;20881;-77
2022/07/02 10:13:55;;;;;;;3.28;1.10;;;;;;;24.58;50.70;100945.19;4976793;28;20041;-76
2022/07/02 10:16:22;;;;;;;1.80;0.90;;;;;;;25.39;51.94;101167.84;4977436;28;20077;-76
2022/07/02 10:18:48;;;;;;;2.50;1.10;;;;;;;25.03;49.83;100891.44;4978592;28;20042;-76
2022/07/02 10:21:15;;;;;;;3.80;0.80;;;;;;;23.29;53.56;100794.19;4977610;28;20018;-77
2022/07/02 10:23:43;;;;;;;4.22;1.48;;;;;;;24.50;54.04;101073.03;4974876;28;20034;-76
2022/07/02 10:26:13;;;;;;;3.17;1.30;;;;;;;22.63;54.86;100689.53;4986136;28;20037;-78
2022/07/02 10:28:38;;;;;;;1.88;0.80;;;;;;;22.31;57.52;100793.34;4979254;28;20046;-77
2022/07/02 10:31:08;;;;;;;5.17;1.00;;;;;;;22.16;61.17;100886.25;4984681;28;20026;-77
2022/07/02 10:33:43;;;;;;;3.55;1.00;;;;;;;22.22;65.69;101015.03;4961608;28;20050;-76
2022/07/02 10:36:12;;;;;;;5.03;1.42;;;;;;;22.42;60.67;100922.22;4975287;28;20038;-77
2022/07/02 10:38:40;;;;;;;4.93;1.02;;;;;;;23.41;58.00;101050.19;4979042;28;20026;-76
2022/07/02 10:41:08;;;;;;;3.92;0.90;;;;;;;24.98;54.46;101228.13;4978714;28;20042;-77
2022/07/02 10:43:35;;;;;;;3.15;1.45;;;;;;;24.22;51.53;100875.56;4974225;28;20523;-77
2022/07/02 10:46:08;;;;;;;3.85;1.98;;;;;;;25.41;49.94;101073.59;4974277;28;20034;-77
2022/07/02 10:48:35;;;;;;;3.78;0.90;;;;;;;25.57;52.01;101243.28;4984945;28;20030;-77
2022/07/02 10:51:01;;;;;;;2.03;0.85;;;;;;;25.38;47.97;100974.88;4975143;28;20154;-78
2022/07/02 10:53:28;;;;;;;2.40;0.98;;;;;;;24.61;49.65;100873.72;4978367;28;20939;-77
2022/07/02 10:55:53;;;;;;;5.88;1.80;;;;;;;23.66;56.33;101057.25;4979725;28;20058;-77
2022/07/02 10:58:28;;;;;;;1.63;0.80;;;;;;;24.06;52.77;100914.59;4977869;28;20066;-78
2022/07/02 11:00:53;;;;;;;4.10;0.88;;;;;;;23.87;53.02;100935.81;4981663;28;20026;-77
2022/07/02 11:03:21;;;;;;;3.75;0.85;;;;;;;23.07;53.90;100815.84;4980245;28;20480;-78
2022/07/02 11:05:50;;;;;;;2.22;0.93;;;;;;;24.44;56.39;101244.00;4981068;28;20038;-75
2022/07/02 11:08:41;;;;;;;3.50;1.00;;;;;;;25.94;49.93;101209.91;4979469;28;20031;-77
2022/07/02 11:11:08;;;;;;;2.55;1.00;;;;;;;26.43;45.94;101068.41;4958484;28;20041;-76
2022/07/02 11:13:38;;;;;;;3.30;0.98;;;;;;;26.73;44.99;100998.59;4962027;28;20476;-77
2022/07/02 11:16:16;;;;;;;5.80;1.05;;;;;;;25.98;43.68;100719.53;4985194;28;20038;-77
2022/07/02 11:18:45;;;;;;;1.30;0.70;;;;;;;26.68;45.89;101083.44;4977761;28;20377;-77